Time;durP1;ratioP1;P1;durP2;ratioP2;P2;SDS_P1;SDS_P2;PMS_P1;PMS_P2;Temp;Humidity;BMP_temperature;BMP_pressure;BME280_temperature;BME280_humidity;BME280_pressure;Samples;Min_cycle;Max_cycle;Signal;HPM_P1;HPM_P2
2021/01/13 00:02:10;;;;;;;0.50;0.30;;;5.80;69.20;;;;;;4980891;28;20065;-73
2021/01/13 00:04:36;;;;;;;1.52;0.40;;;5.90;69.20;;;;;;4977986;28;20044;-72
2021/01/13 00:07:03;;;;;;;0.47;0.30;;;5.80;69.10;;;;;;4979828;28;20034;-72
2021/01/13 00:09:29;;;;;;;1.00;0.40;;;5.90;69.10;;;;;;4983459;28;20030;-72
2021/01/13 00:11:58;;;;;;;1.10;0.40;;;5.90;69.00;;;;;;4981522;28;20586;-73
2021/01/13 00:14:24;;;;;;;0.88;0.38;;;5.90;68.90;;;;;;4979056;28;20027;-72
2021/01/13 00:16:51;;;;;;;1.35;0.70;;;5.90;68.90;;;;;;4981948;28;20043;-72
2021/01/13 00:19:17;;;;;;;3.78;0.70;;;5.90;68.80;;;;;;4984589;28;20109;-73
2021/01/13 00:21:54;;;;;;;2.47;0.40;;;5.90;68.80;;;;;;4974404;28;20130;-72
2021/01/13 00:24:24;;;;;;;2.85;0.60;;;5.80;68.80;;;;;;4979524;28;20030;-73
2021/01/13 00:26:50;;;;;;;1.93;0.47;;;5.80;68.70;;;;;;4980120;28;20027;-72
2021/01/13 00:29:17;;;;;;;1.13;0.50;;;5.90;68.70;;;;;;4982361;28;20031;-72
2021/01/13 00:31:43;;;;;;;0.52;0.30;;;5.80;68.70;;;;;;4977556;28;20049;-73
2021/01/13 00:34:10;;;;;;;0.98;0.30;;;5.80;68.70;;;;;;4980225;28;20026;-73
2021/01/13 00:36:36;;;;;;;1.17;0.55;;;5.80;68.70;;;;;;4968705;28;20515;-72
2021/01/13 00:39:03;;;;;;;0.75;0.40;;;5.80;68.70;;;;;;4981416;28;20039;-73
2021/01/13 00:41:28;;;;;;;1.25;0.45;;;5.80;68.80;;;;;;4979255;28;20034;-71
2021/01/13 00:43:54;;;;;;;1.02;0.40;;;5.80;68.80;;;;;;4984989;28;20065;-72
2021/01/13 00:46:20;;;;;;;2.33;0.50;;;5.80;68.80;;;;;;4983235;28;20088;-72
2021/01/13 00:48:46;;;;;;;1.67;0.50;;;5.80;68.80;;;;;;4984956;28;20049;-72
2021/01/13 00:51:12;;;;;;;1.67;0.40;;;5.70;68.80;;;;;;4982069;28;20027;-72
2021/01/13 00:53:38;;;;;;;1.13;0.60;;;5.70;68.70;;;;;;4986035;28;20519;-72
2021/01/13 00:56:05;;;;;;;1.88;0.40;;;5.70;68.70;;;;;;4979788;28;20397;-73
2021/01/13 00:58:31;;;;;;;1.15;0.40;;;5.70;68.60;;;;;;4982768;28;20520;-71
2021/01/13 01:00:57;;;;;;;6.28;0.63;;;5.70;68.60;;;;;;4982513;28;20126;-71
2021/01/13 01:03:22;;;;;;;2.47;0.60;;;5.60;68.50;;;;;;4969077;28;20026;-72
2021/01/13 01:05:49;;;;;;;0.45;0.30;;;5.60;68.60;;;;;;4965138;28;20042;-72
2021/01/13 01:08:15;;;;;;;2.17;0.40;;;5.60;68.60;;;;;;4962468;28;20504;-71
2021/01/13 01:10:41;;;;;;;2.30;0.50;;;5.60;68.60;;;;;;4963653;28;20053;-72
2021/01/13 01:13:07;;;;;;;0.90;0.57;;;5.60;68.70;;;;;;4965121;28;20035;-71
2021/01/13 01:15:34;;;;;;;1.23;0.45;;;5.60;68.80;;;;;;4968079;28;20046;-72
2021/01/13 01:18:00;;;;;;;3.88;1.75;;;5.50;68.70;;;;;;4974140;28;20031;-72
2021/01/13 01:20:25;;;;;;;2.20;0.80;;;5.50;68.70;;;;;;4968097;28;20038;-71
2021/01/13 01:22:59;;;;;;;1.63;0.60;;;5.50;68.80;;;;;;4962362;28;21668;-72
2021/01/13 01:25:26;;;;;;;3.28;1.00;;;5.50;68.80;;;;;;4963955;28;20031;-72
2021/01/13 01:27:54;;;;;;;4.05;0.88;;;5.50;68.80;;;;;;4969603;28;20035;-72
2021/01/13 01:30:21;;;;;;;2.28;0.85;;;5.50;68.90;;;;;;4964008;28;20052;-72
2021/01/13 01:32:47;;;;;;;2.17;1.15;;;5.40;68.90;;;;;;4967091;28;20115;-72
2021/01/13 01:35:13;;;;;;;1.98;0.85;;;5.50;69.00;;;;;;4963792;28;20069;-72
2021/01/13 01:37:39;;;;;;;2.30;0.82;;;5.50;68.90;;;;;;4968667;28;20064;-72
2021/01/13 01:40:08;;;;;;;4.35;1.52;;;5.50;69.00;;;;;;4971472;28;20054;-72
2021/01/13 01:42:35;;;;;;;3.65;1.25;;;5.40;68.90;;;;;;4969844;28;20093;-72
2021/01/13 01:45:04;;;;;;;2.88;0.90;;;5.50;68.90;;;;;;4972155;28;20027;-71
2021/01/13 01:47:52;;;;;;;2.35;0.80;;;5.40;68.90;;;;;;4960313;28;20049;-71
2021/01/13 01:50:22;;;;;;;2.58;0.70;;;5.50;69.00;;;;;;4957373;28;20030;-72
2021/01/13 01:52:59;;;;;;;1.30;0.60;;;5.40;68.90;;;;;;4962412;28;20053;-72
2021/01/13 01:55:34;;;;;;;1.00;0.55;;;5.40;68.90;;;;;;4960416;28;20088;-71
2021/01/13 01:58:09;;;;;;;2.25;0.77;;;5.40;68.90;;;;;;4969699;28;20045;-72
2021/01/13 02:00:34;;;;;;;3.80;0.60;;;5.40;69.00;;;;;;4962041;28;20511;-72
2021/01/13 02:03:10;;;;;;;3.97;0.90;;;5.40;69.10;;;;;;4971036;28;20050;-72
2021/01/13 02:05:36;;;;;;;3.28;0.82;;;5.40;69.20;;;;;;4954565;28;20026;-72
2021/01/13 02:08:02;;;;;;;2.58;0.63;;;5.40;69.30;;;;;;4966167;28;20065;-70
2021/01/13 02:10:28;;;;;;;2.30;0.57;;;5.50;69.40;;;;;;4961388;28;20518;-73
2021/01/13 02:13:02;;;;;;;1.85;0.57;;;5.40;70.00;;;;;;4969829;28;20030;-72
2021/01/13 02:15:28;;;;;;;3.05;0.63;;;5.40;69.50;;;;;;4960422;28;20035;-73
2021/01/13 02:17:55;;;;;;;1.92;0.50;;;5.50;69.60;;;;;;4968521;28;20037;-72
2021/01/13 02:20:25;;;;;;;2.47;0.63;;;5.50;69.70;;;;;;4962095;28;20587;-73
2021/01/13 02:22:52;;;;;;;1.85;0.40;;;5.60;69.70;;;;;;4967197;28;20518;-72
2021/01/13 02:25:54;;;;;;;2.78;0.40;;;5.60;69.70;;;;;;4959483;28;20038;-72
2021/01/13 02:28:22;;;;;;;2.08;0.60;;;5.70;69.80;;;;;;4961235;28;20038;-72
2021/01/13 02:31:03;;;;;;;1.65;0.70;;;5.70;69.50;;;;;;4966209;28;20118;-72
2021/01/13 02:33:40;;;;;;;1.60;0.82;;;5.70;69.50;;;;;;4962563;28;20121;-71
2021/01/13 02:36:20;;;;;;;1.70;0.80;;;5.70;69.40;;;;;;4966098;28;20042;-72
2021/01/13 02:38:53;;;;;;;2.35;0.88;;;5.70;69.80;;;;;;4968150;28;20046;-72
2021/01/13 02:41:28;;;;;;;2.65;0.65;;;5.70;69.20;;;;;;4958622;28;20058;-72
2021/01/13 02:43:56;;;;;;;2.45;0.55;;;5.70;69.10;;;;;;4965281;28;20034;-72
2021/01/13 02:46:55;;;;;;;3.00;0.40;;;5.80;69.10;;;;;;4965994;28;20034;-72
2021/01/13 02:49:29;;;;;;;1.90;0.40;;;5.70;69.10;;;;;;4960872;28;20039;-72
2021/01/13 02:51:57;;;;;;;0.63;0.20;;;5.70;68.90;;;;;;4964777;28;20791;-72
2021/01/13 02:54:32;;;;;;;2.22;0.55;;;5.60;68.70;;;;;;4963840;28;20046;-72
2021/01/13 02:57:15;;;;;;;1.10;0.30;;;5.70;68.80;;;;;;4960605;28;20062;-72
2021/01/13 02:59:45;;;;;;;1.42;0.47;;;5.60;68.80;;;;;;4962384;28;20077;-72
2021/01/13 03:02:11;;;;;;;2.17;0.40;;;5.60;68.80;;;;;;4968152;28;20042;-71
2021/01/13 03:04:40;;;;;;;1.25;0.38;;;5.60;68.90;;;;;;4961584;28;20062;-72
2021/01/13 03:07:15;;;;;;;2.08;0.40;;;5.50;68.90;;;;;;4965551;28;20038;-72
2021/01/13 03:09:46;;;;;;;3.25;0.55;;;5.50;69.00;;;;;;4959835;28;20062;-72
2021/01/13 03:12:23;;;;;;;;;;;5.50;69.20;;;;;;4966214;28;20093;-72
2021/01/13 03:14:57;;;;;;;0.93;0.60;;;5.50;69.40;;;;;;4950554;28;20368;-71
2021/01/13 03:17:33;;;;;;;1.80;0.50;;;5.60;69.20;;;;;;4966654;28;20042;-72
2021/01/13 03:20:30;;;;;;;1.85;0.70;;;5.50;69.30;;;;;;4966384;28;20041;-72
2021/01/13 03:23:08;;;;;;;2.72;0.80;;;5.50;69.50;;;;;;4962100;28;20042;-72
2021/01/13 03:25:44;;;;;;;2.88;0.55;;;5.60;69.60;;;;;;4964211;28;20042;-72
2021/01/13 03:28:10;;;;;;;0.95;0.50;;;5.60;69.70;;;;;;4966519;28;20039;-72
2021/01/13 03:30:38;;;;;;;0.38;0.30;;;5.60;69.60;;;;;;4962245;28;20058;-72
2021/01/13 03:33:16;;;;;;;1.50;0.50;;;5.60;69.60;;;;;;4968826;28;20443;-72
2021/01/13 03:35:52;;;;;;;0.52;0.22;;;5.70;69.60;;;;;;4969193;28;20065;-72
2021/01/13 03:38:19;;;;;;;0.73;0.30;;;5.70;69.60;;;;;;4963398;28;20504;-72
2021/01/13 03:40:47;;;;;;;1.58;0.30;;;5.80;69.60;;;;;;4963011;28;20066;-72
2021/01/13 03:43:22;;;;;;;1.08;0.30;;;5.70;69.60;;;;;;4966408;28;20039;-73
2021/01/13 03:45:53;;;;;;;3.13;0.45;;;5.70;69.70;;;;;;4959330;28;20036;-72
2021/01/13 03:48:28;;;;;;;;;;;5.70;69.70;;;;;;4969832;28;20736;-72
2021/01/13 03:50:55;;;;;;;2.10;0.38;;;5.80;70.00;;;;;;4965651;28;19940;-72
2021/01/13 03:53:21;;;;;;;0.65;0.40;;;5.80;69.50;;;;;;4969201;28;20461;-73
2021/01/13 03:55:49;;;;;;;1.42;0.30;;;5.80;69.60;;;;;;4961028;28;20029;-73
2021/01/13 03:58:33;;;;;;;0.30;0.20;;;5.90;69.70;;;;;;4966876;28;20039;-73
2021/01/13 04:00:59;;;;;;;0.60;0.20;;;5.90;69.80;;;;;;4968257;28;20125;-73
2021/01/13 04:03:46;;;;;;;0.38;0.20;;;5.90;69.70;;;;;;4971740;28;20113;-72
2021/01/13 04:06:12;;;;;;;0.30;0.10;;;5.90;69.70;;;;;;4967291;28;20030;-73
2021/01/13 04:08:45;;;;;;;0.08;0.08;;;6.00;69.60;;;;;;4962223;28;20027;-73
2021/01/13 04:11:17;;;;;;;0.47;0.40;;;5.90;69.50;;;;;;4967061;28;20459;-73
2021/01/13 04:13:51;;;;;;;1.38;0.35;;;5.90;69.40;;;;;;4964545;28;20515;-72
2021/01/13 04:16:19;;;;;;;1.30;0.35;;;5.90;69.30;;;;;;4967749;28;20046;-72
2021/01/13 04:18:46;;;;;;;1.85;0.55;;;5.90;69.30;;;;;;4964690;28;20026;-72
2021/01/13 04:21:15;;;;;;;1.02;0.60;;;5.90;69.30;;;;;;4967173;28;20451;-72
2021/01/13 04:23:42;;;;;;;0.52;0.32;;;6.00;69.40;;;;;;4963797;28;20047;-72
2021/01/13 04:26:08;;;;;;;0.90;0.63;;;5.90;69.30;;;;;;4972906;28;20022;-73
2021/01/13 04:28:34;;;;;;;0.70;0.30;;;6.00;69.40;;;;;;4974378;28;20118;-72
2021/01/13 04:31:00;;;;;;;0.57;0.38;;;5.90;69.40;;;;;;4962202;28;20122;-74
2021/01/13 04:33:26;;;;;;;0.40;0.22;;;6.00;69.50;;;;;;4972376;28;20180;-71
2021/01/13 04:35:53;;;;;;;0.68;0.40;;;5.90;69.50;;;;;;4964201;28;20118;-72
2021/01/13 04:38:28;;;;;;;3.38;0.88;;;5.90;69.60;;;;;;4968842;28;20038;-72
2021/01/13 04:41:11;;;;;;;2.10;0.77;;;5.90;69.60;;;;;;4961635;28;20031;-72
2021/01/13 04:43:52;;;;;;;1.88;0.70;;;5.90;69.70;;;;;;4969229;28;20032;-72
2021/01/13 04:46:34;;;;;;;1.80;0.77;;;5.90;69.50;;;;;;4968529;28;20030;-72
2021/01/13 04:49:06;;;;;;;2.75;0.65;;;5.90;69.40;;;;;;4965915;28;20070;-72
2021/01/13 04:51:37;;;;;;;1.20;0.50;;;5.90;69.30;;;;;;4972937;28;20381;-72
2021/01/13 04:54:11;;;;;;;1.15;0.82;;;5.90;69.30;;;;;;4963384;28;20054;-72
2021/01/13 04:56:45;;;;;;;1.17;0.50;;;5.90;69.30;;;;;;4976996;28;20027;-72
2021/01/13 04:59:30;;;;;;;1.20;0.35;;;5.90;69.30;;;;;;4968443;28;20026;-72
2021/01/13 05:02:08;;;;;;;0.93;0.80;;;5.90;69.70;;;;;;4958350;28;20038;-72
2021/01/13 05:05:00;;;;;;;0.95;0.50;;;5.80;69.70;;;;;;4969339;28;20035;-72
2021/01/13 05:07:38;;;;;;;2.17;0.68;;;5.90;70.00;;;;;;4966769;28;20042;-72
2021/01/13 05:10:12;;;;;;;2.03;1.02;;;5.80;70.00;;;;;;4965592;28;20046;-72
2021/01/13 05:12:58;;;;;;;1.05;0.43;;;5.90;70.10;;;;;;4964812;28;20031;-71
2021/01/13 05:15:29;;;;;;;1.48;0.68;;;6.00;70.30;;;;;;4966414;28;20038;-72
2021/01/13 05:18:07;;;;;;;1.20;0.50;;;6.00;70.10;;;;;;4961317;28;20587;-72
2021/01/13 05:20:44;;;;;;;1.80;0.40;;;6.00;70.10;;;;;;4971555;28;20334;-73
2021/01/13 05:23:11;;;;;;;2.05;0.93;;;6.00;70.10;;;;;;4961201;28;20069;-73
2021/01/13 05:25:39;;;;;;;1.98;0.70;;;6.10;70.10;;;;;;4972788;28;20051;-74
2021/01/13 05:28:07;;;;;;;1.15;0.40;;;6.00;70.00;;;;;;4963487;28;20081;-73
2021/01/13 05:30:41;;;;;;;0.32;0.30;;;6.00;70.00;;;;;;4969359;28;20030;-73
2021/01/13 05:33:09;;;;;;;0.40;0.30;;;6.10;70.00;;;;;;4961778;28;20047;-74
2021/01/13 05:35:37;;;;;;;1.23;0.35;;;6.10;69.90;;;;;;4969239;28;20077;-73
2021/01/13 05:38:09;;;;;;;1.02;0.32;;;6.20;70.00;;;;;;4959956;28;20118;-73
2021/01/13 05:40:41;;;;;;;3.38;1.05;;;6.10;69.90;;;;;;4969791;28;20423;-73
2021/01/13 05:43:07;;;;;;;2.15;1.00;;;6.20;70.10;;;;;;4963542;28;20042;-73
2021/01/13 05:45:37;;;;;;;1.00;0.52;;;6.10;70.00;;;;;;4968637;28;20077;-73
2021/01/13 05:48:19;;;;;;;1.10;0.40;;;6.20;70.00;;;;;;4970814;28;20081;-74
2021/01/13 05:50:46;;;;;;;0.73;0.40;;;6.20;70.00;;;;;;4974925;28;20027;-72
2021/01/13 05:53:12;;;;;;;0.45;0.30;;;6.20;69.80;;;;;;4961992;28;21129;-73
2021/01/13 05:55:46;;;;;;;2.17;0.40;;;6.20;69.80;;;;;;4965382;28;20029;-73
2021/01/13 05:58:12;;;;;;;0.50;0.50;;;6.20;69.80;;;;;;4965980;28;20078;-73
2021/01/13 06:00:38;;;;;;;0.68;0.32;;;6.20;69.70;;;;;;4968032;28;20030;-73
2021/01/13 06:03:04;;;;;;;1.55;0.70;;;6.20;69.60;;;;;;4967469;28;20034;-73
2021/01/13 06:05:32;;;;;;;0.70;0.50;;;6.20;69.60;;;;;;4967221;28;20035;-72
2021/01/13 06:08:03;;;;;;;2.70;0.68;;;6.10;69.50;;;;;;4963991;28;20057;-73
2021/01/13 06:10:33;;;;;;;;;;;6.20;69.50;;;;;;4972208;28;20692;-72
2021/01/13 06:13:03;;;;;;;1.60;0.60;;;6.10;69.80;;;;;;4961682;28;19914;-72
2021/01/13 06:15:29;;;;;;;;;;;6.20;69.20;;;;;;4966715;28;20030;-72
2021/01/13 06:17:57;;;;;;;1.73;0.70;;;6.20;69.60;;;;;;4970271;28;19992;-72
2021/01/13 06:20:28;;;;;;;1.55;0.85;;;6.10;68.90;;;;;;4959196;28;20042;-73
2021/01/13 06:22:58;;;;;;;1.77;0.73;;;6.10;69.00;;;;;;4969343;28;20451;-72
2021/01/13 06:25:29;;;;;;;0.50;0.50;;;6.00;69.10;;;;;;4963988;28;20113;-72
2021/01/13 06:27:57;;;;;;;2.05;0.75;;;6.00;69.20;;;;;;4970653;28;20054;-73
2021/01/13 06:30:31;;;;;;;0.40;0.20;;;6.00;69.20;;;;;;4985276;28;20041;-73
2021/01/13 06:33:25;;;;;;;0.68;0.20;;;5.90;69.30;;;;;;4986879;28;20049;-73
2021/01/13 06:36:06;;;;;;;1.15;0.60;;;5.90;69.40;;;;;;4986133;28;20435;-72
2021/01/13 06:38:52;;;;;;;2.47;0.35;;;5.90;69.50;;;;;;4984492;28;20115;-73
2021/01/13 06:41:17;;;;;;;1.20;0.40;;;5.90;69.50;;;;;;4981549;28;20038;-72
2021/01/13 06:44:00;;;;;;;1.25;0.40;;;5.80;69.30;;;;;;4978922;28;20081;-73
2021/01/13 06:46:26;;;;;;;1.75;0.50;;;5.80;69.50;;;;;;4989201;28;20184;-72
2021/01/13 06:48:53;;;;;;;2.10;0.75;;;5.80;69.40;;;;;;4984945;28;20026;-71
2021/01/13 06:51:19;;;;;;;2.50;0.70;;;5.70;69.50;;;;;;4981060;28;20034;-71
2021/01/13 06:53:46;;;;;;;1.63;0.80;;;5.70;69.50;;;;;;4983871;28;20080;-72
2021/01/13 06:56:13;;;;;;;1.77;0.80;;;5.60;69.60;;;;;;4972352;28;20041;-72
2021/01/13 06:58:54;;;;;;;1.60;0.75;;;5.80;69.70;;;;;;4982808;28;20050;-71
2021/01/13 07:01:20;;;;;;;4.18;1.25;;;5.80;69.80;;;;;;4965242;28;20026;-71
2021/01/13 07:03:45;;;;;;;4.05;1.20;;;5.70;69.80;;;;;;4986020;28;20052;-71
2021/01/13 07:06:11;;;;;;;2.13;1.02;;;5.70;69.90;;;;;;4983459;28;20026;-71
2021/01/13 07:08:37;;;;;;;1.13;0.70;;;5.80;70.00;;;;;;4982316;28;20105;-73
2021/01/13 07:11:05;;;;;;;2.17;0.80;;;5.80;70.00;;;;;;4987086;28;20042;-71
2021/01/13 07:13:34;;;;;;;2.65;0.70;;;5.80;70.10;;;;;;4980479;28;20113;-70
2021/01/13 07:16:01;;;;;;;1.70;0.68;;;5.80;70.10;;;;;;4985367;28;20038;-71
2021/01/13 07:18:28;;;;;;;2.20;0.47;;;5.90;70.10;;;;;;4980570;28;20035;-70
2021/01/13 07:20:54;;;;;;;1.67;0.50;;;5.90;70.10;;;;;;4988209;28;20018;-71
2021/01/13 07:23:21;;;;;;;2.72;0.77;;;5.80;70.00;;;;;;4978432;28;20037;-71
2021/01/13 07:25:51;;;;;;;1.55;0.50;;;5.90;70.10;;;;;;4985452;28;20102;-71
2021/01/13 07:28:17;;;;;;;2.20;0.60;;;5.90;70.00;;;;;;4982668;28;20026;-71
2021/01/13 07:30:44;;;;;;;1.23;0.35;;;5.90;69.90;;;;;;4985379;28;20026;-70
2021/01/13 07:33:14;;;;;;;2.15;0.50;;;5.90;69.90;;;;;;4984239;28;20495;-71
2021/01/13 07:35:47;;;;;;;3.50;0.60;;;5.80;69.90;;;;;;4988192;28;20026;-71
2021/01/13 07:38:18;;;;;;;0.75;0.40;;;5.90;70.00;;;;;;4981891;28;20072;-72
2021/01/13 07:41:04;;;;;;;1.05;0.40;;;5.90;70.00;;;;;;4987537;28;20088;-72
2021/01/13 07:43:51;;;;;;;1.08;0.47;;;5.90;70.30;;;;;;4981193;28;20682;-70
2021/01/13 07:46:32;;;;;;;0.88;0.40;;;5.80;70.10;;;;;;4975768;28;20585;-71
2021/01/13 07:49:00;;;;;;;0.47;0.32;;;5.90;70.20;;;;;;4992323;28;20506;-71
2021/01/13 07:51:33;;;;;;;1.52;0.40;;;5.90;70.00;;;;;;4989976;28;20032;-72
2021/01/13 07:54:06;;;;;;;1.13;0.40;;;5.90;70.00;;;;;;4995950;28;20436;-72
2021/01/13 07:56:36;;;;;;;2.03;0.28;;;5.90;70.00;;;;;;4985594;28;20028;-71
2021/01/13 07:59:34;;;;;;;2.50;0.40;;;5.90;69.90;;;;;;4999089;28;20034;-73
2021/01/13 08:02:34;;;;;;;2.03;0.80;;;5.90;70.10;;;;;;4959224;28;20038;-73
2021/01/13 08:05:15;;;;;;;2.53;0.40;;;5.90;70.10;;;;;;4991114;28;20026;-73
2021/01/13 08:07:41;;;;;;;1.45;0.50;;;6.00;70.10;;;;;;4989503;28;20030;-72
2021/01/13 08:10:09;;;;;;;1.27;0.40;;;5.90;69.90;;;;;;4993226;28;20046;-72
2021/01/13 08:13:12;;;;;;;1.02;0.75;;;5.90;70.00;;;;;;5005630;28;20034;-74
2021/01/13 08:16:06;;;;;;;1.75;0.55;;;5.90;70.20;;;;;;4998286;28;20030;-72
2021/01/13 08:19:11;;;;;;;1.38;0.52;;;5.90;70.30;;;;;;5006180;28;20038;-73
2021/01/13 08:26:32;;;;;;;1.40;0.82;;;6.00;70.70;;;;;;5003033;28;20026;-73
2021/01/13 08:29:01;;;;;;;1.60;0.80;;;6.00;70.90;;;;;;5009991;28;20026;-72
2021/01/13 08:31:27;;;;;;;1.45;0.70;;;6.00;70.80;;;;;;5001884;28;20513;-72
2021/01/13 08:34:08;;;;;;;1.45;0.75;;;6.10;70.90;;;;;;5004424;28;20057;-71
2021/01/13 08:36:51;;;;;;;0.70;0.38;;;6.20;71.00;;;;;;5001334;28;20475;-72
2021/01/13 08:39:17;;;;;;;1.35;0.40;;;6.30;70.80;;;;;;5006997;28;20033;-73
2021/01/13 08:41:45;;;;;;;1.40;0.70;;;6.30;70.70;;;;;;4985704;28;20034;-72
2021/01/13 08:44:15;;;;;;;1.75;0.40;;;6.30;70.70;;;;;;5009367;28;20487;-71
2021/01/13 08:46:43;;;;;;;3.13;0.50;;;6.40;70.70;;;;;;5002109;28;20038;-74
2021/01/13 08:49:09;;;;;;;1.45;0.50;;;6.40;70.70;;;;;;5008591;28;20072;-74
2021/01/13 08:51:35;;;;;;;1.48;0.30;;;6.40;70.60;;;;;;5004862;28;20037;-73
2021/01/13 08:54:22;;;;;;;2.28;0.85;;;6.50;71.10;;;;;;4997994;28;20078;-74
2021/01/13 08:56:58;;;;;;;2.03;0.60;;;6.50;71.80;;;;;;4985509;28;20592;-75
2021/01/13 08:59:43;;;;;;;0.90;0.30;;;6.60;71.30;;;;;;4986537;28;20113;-76
2021/01/13 09:02:18;;;;;;;1.50;0.40;;;6.60;71.10;;;;;;4986518;28;20066;-75
2021/01/13 09:04:54;;;;;;;1.52;0.30;;;6.70;70.70;;;;;;4987783;28;20117;-75
2021/01/13 09:07:24;;;;;;;2.90;0.38;;;6.70;70.50;;;;;;4986346;28;20491;-75
2021/01/13 09:10:11;;;;;;;1.92;0.60;;;6.70;70.20;;;;;;4990890;28;20058;-75
2021/01/13 09:12:45;;;;;;;0.68;0.40;;;6.70;70.30;;;;;;4985014;28;20053;-73
2021/01/13 09:15:11;;;;;;;2.63;0.68;;;6.70;70.10;;;;;;4991751;28;20030;-73
2021/01/13 09:17:38;;;;;;;2.28;0.85;;;6.80;70.30;;;;;;5000395;28;20041;-73
2021/01/13 09:20:06;;;;;;;0.57;0.50;;;6.80;70.40;;;;;;4990542;28;20042;-75
2021/01/13 09:22:45;;;;;;;1.30;0.50;;;6.80;70.60;;;;;;4972286;28;20054;-74
2021/01/13 09:25:20;;;;;;;2.40;0.55;;;6.80;70.60;;;;;;4977171;28;20131;-76
2021/01/13 09:27:52;;;;;;;2.08;0.80;;;6.80;70.60;;;;;;4978726;28;20046;-75
2021/01/13 09:30:36;;;;;;;2.85;0.85;;;6.80;70.60;;;;;;4984430;28;20097;-75
2021/01/13 09:33:04;;;;;;;1.63;0.90;;;6.90;70.60;;;;;;4980622;28;20031;-75
2021/01/13 09:35:33;;;;;;;1.10;0.60;;;6.90;70.60;;;;;;4980473;28;20034;-73
2021/01/13 09:38:01;;;;;;;3.70;1.60;;;6.90;70.50;;;;;;4976306;28;20031;-75
2021/01/13 09:40:52;;;;;;;2.90;0.70;;;7.00;70.70;;;;;;4980388;28;20122;-75
2021/01/13 09:43:32;;;;;;;2.22;0.70;;;7.00;71.40;;;;;;4977416;28;20049;-75
2021/01/13 09:46:03;;;;;;;1.90;0.80;;;7.00;70.80;;;;;;4978007;28;20039;-75
2021/01/13 09:48:32;;;;;;;1.75;0.80;;;7.10;70.80;;;;;;4979702;28;20034;-75
2021/01/13 09:51:03;;;;;;;3.45;1.20;;;7.10;70.80;;;;;;4978198;28;20531;-75
2021/01/13 09:53:46;;;;;;;1.77;1.10;;;7.10;70.80;;;;;;4980066;28;20045;-75
2021/01/13 09:56:11;;;;;;;3.92;1.92;;;7.20;70.90;;;;;;4978953;28;20607;-75
2021/01/13 09:58:43;;;;;;;3.22;1.05;;;7.30;70.90;;;;;;4979250;28;20117;-75
2021/01/13 10:01:10;;;;;;;1.33;0.75;;;7.20;70.80;;;;;;4974791;28;20475;-75
2021/01/13 10:03:35;;;;;;;2.13;0.88;;;7.30;70.80;;;;;;4978665;28;20027;-75
2021/01/13 10:06:02;;;;;;;0.70;0.43;;;7.40;70.90;;;;;;4976285;28;20027;-74
2021/01/13 10:08:31;;;;;;;2.28;0.60;;;7.40;71.10;;;;;;4975062;28;20810;-74
2021/01/13 10:11:01;;;;;;;1.33;0.60;;;7.50;71.20;;;;;;4977300;28;20040;-75
2021/01/13 10:13:29;;;;;;;3.50;0.83;;;7.50;71.10;;;;;;4973520;28;20400;-75
2021/01/13 10:16:00;;;;;;;1.92;0.68;;;7.60;71.70;;;;;;4978650;28;20027;-75
2021/01/13 10:18:26;;;;;;;2.10;0.55;;;7.60;71.10;;;;;;4975449;28;20144;-75
2021/01/13 10:21:00;;;;;;;1.90;0.60;;;7.70;71.00;;;;;;4977429;28;20312;-75
2021/01/13 10:23:28;;;;;;;1.25;0.70;;;7.70;70.80;;;;;;4973421;28;20039;-75
2021/01/13 10:26:03;;;;;;;1.58;0.95;;;7.70;70.70;;;;;;4978314;28;20023;-75
2021/01/13 10:28:29;;;;;;;1.40;0.57;;;7.80;70.70;;;;;;4981754;28;20483;-75
2021/01/13 10:30:55;;;;;;;2.40;0.70;;;7.80;70.60;;;;;;4978529;28;20061;-76
2021/01/13 10:33:47;;;;;;;1.77;0.70;;;7.80;70.70;;;;;;4976387;28;20096;-75
2021/01/13 10:36:33;;;;;;;2.30;0.63;;;7.90;70.80;;;;;;4977522;28;20117;-76
2021/01/13 10:39:00;;;;;;;3.55;0.95;;;8.00;70.90;;;;;;4978071;28;20026;-76
2021/01/13 10:41:37;;;;;;;4.93;0.80;;;8.10;70.90;;;;;;4977897;28;20061;-75
2021/01/13 10:44:11;;;;;;;1.95;0.70;;;8.00;70.60;;;;;;4977349;28;20069;-77
2021/01/13 10:46:55;;;;;;;1.63;0.60;;;8.10;70.70;;;;;;4979105;28;20089;-76
2021/01/13 10:49:25;;;;;;;2.38;0.60;;;8.20;70.80;;;;;;4981061;28;20031;-77
2021/01/13 10:52:13;;;;;;;2.53;0.63;;;8.20;71.00;;;;;;4976078;28;20727;-75
2021/01/13 10:54:41;;;;;;;1.73;0.60;;;8.20;70.90;;;;;;4980193;28;20050;-76
2021/01/13 10:57:08;;;;;;;2.13;1.10;;;8.30;71.10;;;;;;4975244;28;20432;-76
2021/01/13 10:59:36;;;;;;;3.80;0.65;;;8.40;71.20;;;;;;4979638;28;21406;-76
2021/01/13 11:02:05;;;;;;;2.35;1.02;;;8.40;71.20;;;;;;4976585;28;20038;-77
2021/01/13 11:04:36;;;;;;;3.10;0.65;;;8.60;70.90;;;;;;4975686;28;20038;-75
2021/01/13 11:07:07;;;;;;;3.53;0.93;;;8.50;70.70;;;;;;4975246;28;20065;-75
2021/01/13 11:09:44;;;;;;;2.17;0.77;;;8.60;70.40;;;;;;4983418;28;20810;-75
2021/01/13 11:12:16;;;;;;;1.83;0.60;;;8.70;70.30;;;;;;4978752;28;20038;-74
2021/01/13 11:14:46;;;;;;;1.90;0.57;;;8.80;70.20;;;;;;4977425;28;20034;-76
2021/01/13 11:17:25;;;;;;;3.53;0.60;;;8.70;70.00;;;;;;4978961;28;20035;-74
2021/01/13 11:19:56;;;;;;;1.38;0.47;;;8.70;69.50;;;;;;4975974;28;20038;-75
2021/01/13 11:22:44;;;;;;;1.95;0.52;;;8.80;69.50;;;;;;4973592;28;20042;-75
2021/01/13 11:25:20;;;;;;;2.30;0.60;;;8.70;69.20;;;;;;4978805;28;20073;-74
2021/01/13 11:28:00;;;;;;;2.85;0.80;;;8.70;69.10;;;;;;4979532;28;20046;-75
2021/01/13 11:30:30;;;;;;;1.60;0.40;;;8.70;69.00;;;;;;4977636;28;20076;-75
2021/01/13 11:32:58;;;;;;;1.92;0.63;;;8.70;69.20;;;;;;4977143;28;20045;-74
2021/01/13 11:35:32;;;;;;;2.58;0.60;;;8.60;69.20;;;;;;4982764;28;20050;-74
2021/01/13 11:38:22;;;;;;;1.52;0.68;;;8.60;69.30;;;;;;4974403;28;20327;-75
2021/01/13 11:41:25;;;;;;;2.47;0.82;;;8.60;69.60;;;;;;4981908;28;20030;-74
2021/01/13 11:44:19;;;;;;;2.78;0.75;;;8.60;69.90;;;;;;4988497;28;20715;-74
2021/01/13 11:46:57;;;;;;;2.65;0.73;;;8.60;69.90;;;;;;4991983;28;20034;-74
2021/01/13 11:49:32;;;;;;;3.90;0.75;;;8.60;70.10;;;;;;4989031;28;20117;-74
2021/01/13 11:52:06;;;;;;;3.35;0.70;;;8.70;70.00;;;;;;4986200;28;20038;-74
2021/01/13 11:54:32;;;;;;;3.08;0.60;;;8.70;70.20;;;;;;4991971;28;20502;-74
2021/01/13 11:57:19;;;;;;;1.42;0.75;;;8.70;70.30;;;;;;4998153;28;20121;-76
2021/01/13 11:59:48;;;;;;;1.80;0.50;;;8.70;69.90;;;;;;4976978;28;20038;-75
2021/01/13 12:02:22;;;;;;;1.65;0.50;;;8.80;70.20;;;;;;4974779;28;20049;-74
2021/01/13 12:04:48;;;;;;;2.50;0.60;;;8.80;70.10;;;;;;4974684;28;20196;-75
2021/01/13 12:07:14;;;;;;;3.25;0.60;;;8.80;70.20;;;;;;4970742;28;20131;-74
2021/01/13 12:09:42;;;;;;;2.55;0.50;;;8.90;70.10;;;;;;4976787;28;20030;-75
2021/01/13 12:12:08;;;;;;;2.42;0.40;;;8.90;69.90;;;;;;4974744;28;20042;-74
2021/01/13 12:14:42;;;;;;;3.55;0.90;;;8.90;69.70;;;;;;4976734;28;20031;-76
2021/01/13 12:17:08;;;;;;;1.85;0.57;;;8.90;69.60;;;;;;4974926;28;20113;-74
2021/01/13 12:19:40;;;;;;;2.20;0.73;;;9.00;69.70;;;;;;4976826;28;20511;-74
2021/01/13 12:22:06;;;;;;;1.15;0.40;;;9.00;69.50;;;;;;4973220;28;20070;-74
2021/01/13 12:24:39;;;;;;;1.92;0.50;;;9.10;69.60;;;;;;4980331;28;20026;-74
2021/01/13 12:27:25;;;;;;;1.40;0.50;;;9.00;69.50;;;;;;4978434;28;20023;-76
2021/01/13 12:30:09;;;;;;;2.13;0.50;;;9.10;68.80;;;;;;4979480;28;20042;-74
2021/01/13 12:32:36;;;;;;;4.65;0.75;;;9.10;68.60;;;;;;4971960;28;20125;-75
2021/01/13 12:35:02;;;;;;;2.38;0.60;;;9.20;69.40;;;;;;4980783;28;20030;-74
2021/01/13 12:37:28;;;;;;;2.72;0.70;;;9.20;69.20;;;;;;4984095;28;20033;-74
2021/01/13 12:39:57;;;;;;;1.85;0.30;;;9.30;69.70;;;;;;4980656;28;20113;-74
2021/01/13 12:42:30;;;;;;;3.90;0.60;;;9.30;69.00;;;;;;4983376;28;20058;-77
2021/01/13 12:44:59;;;;;;;2.47;0.80;;;9.30;68.80;;;;;;4977968;28;20137;-74
2021/01/13 12:47:28;;;;;;;2.28;0.55;;;9.30;68.90;;;;;;4980212;28;20041;-75
2021/01/13 12:49:54;;;;;;;1.10;0.20;;;9.40;68.90;;;;;;4978824;28;20034;-75
2021/01/13 12:52:20;;;;;;;2.60;0.40;;;9.30;68.90;;;;;;4983775;28;20062;-74
2021/01/13 12:54:46;;;;;;;1.42;0.70;;;9.30;69.00;;;;;;4977717;28;20120;-74
2021/01/13 12:57:13;;;;;;;3.95;0.55;;;9.40;69.00;;;;;;4974098;28;20039;-75
2021/01/13 12:59:39;;;;;;;1.92;0.43;;;9.40;68.80;;;;;;4980241;28;20027;-74
2021/01/13 13:02:05;;;;;;;3.25;0.85;;;9.40;68.60;;;;;;4976680;28;20038;-74
2021/01/13 13:04:31;;;;;;;3.25;0.90;;;9.40;68.40;;;;;;4980708;28;20411;-75
2021/01/13 13:06:56;;;;;;;4.40;0.80;;;9.40;68.40;;;;;;4979415;28;20050;-74
2021/01/13 13:09:22;;;;;;;0.65;0.30;;;9.40;68.20;;;;;;4977847;28;20043;-74
2021/01/13 13:11:47;;;;;;;1.92;0.50;;;9.40;68.10;;;;;;4978260;28;20158;-75
2021/01/13 13:14:13;;;;;;;1.05;0.60;;;9.40;68.00;;;;;;4974086;28;20620;-74
2021/01/13 13:16:43;;;;;;;3.55;0.70;;;9.30;67.90;;;;;;4981731;28;20044;-74
2021/01/13 13:19:09;;;;;;;2.17;0.43;;;9.20;67.90;;;;;;4973975;28;20050;-75
2021/01/13 13:21:35;;;;;;;3.25;0.60;;;9.20;68.10;;;;;;4977725;28;20060;-75
2021/01/13 13:24:01;;;;;;;4.75;0.90;;;9.10;68.20;;;;;;4975919;28;20595;-74
2021/01/13 13:26:26;;;;;;;2.03;0.77;;;9.10;68.30;;;;;;4984620;28;20037;-74
2021/01/13 13:28:51;;;;;;;1.48;0.88;;;9.20;68.50;;;;;;4976246;28;20034;-75